Time;durP1;ratioP1;P1;durP2;ratioP2;P2;SDS_P1;SDS_P2;PMS_P1;PMS_P2;Temp;Humidity;BMP_temperature;BMP_pressure;BME280_temperature;BME280_humidity;BME280_pressure;Samples;Min_cycle;Max_cycle;Signal;HPM_P1;HPM_P2
2024/03/07 00:00:21;;;;;;;33.33;15.40;;;;;;;3.59;100.00;102684.97;6084559;19;20003;-75
2024/03/07 00:02:28;;;;;;;32.97;17.83;;;;;;;3.51;100.00;102682.22;6091922;19;20035;-76
2024/03/07 00:04:33;;;;;;;35.85;18.08;;;;;;;3.57;100.00;102687.53;6089749;19;20011;-80
2024/03/07 00:06:38;;;;;;;37.10;16.80;;;;;;;3.64;100.00;102693.72;6093422;19;20106;-80
2024/03/07 00:08:42;;;;;;;37.25;18.65;;;;;;;3.68;100.00;102685.13;6090413;19;20015;-79
2024/03/07 00:10:50;;;;;;;36.72;17.48;;;;;;;3.70;100.00;102693.81;6089513;19;20011;-79
2024/03/07 00:12:56;;;;;;;36.78;15.73;;;;;;;3.73;100.00;102686.94;6086733;19;20087;-75
2024/03/07 00:15:01;;;;;;;38.47;17.73;;;;;;;3.74;100.00;102693.03;6085835;19;20043;-75
2024/03/07 00:17:06;;;;;;;41.92;17.75;;;;;;;3.78;100.00;102691.34;6090201;19;20018;-75
2024/03/07 00:19:11;;;;;;;39.15;17.42;;;;;;;3.73;100.00;102691.28;6089452;19;20027;-75
2024/03/07 00:21:16;;;;;;;37.20;18.67;;;;;;;3.67;100.00;102698.97;6090072;19;20017;-75
2024/03/07 00:23:21;;;;;;;46.22;21.33;;;;;;;3.61;100.00;102685.88;6089182;19;20011;-75
2024/03/07 00:25:26;;;;;;;38.85;18.45;;;;;;;3.64;100.00;102699.78;6089199;19;20011;-80
2024/03/07 00:27:31;;;;;;;37.80;17.90;;;;;;;3.62;100.00;102690.22;6089955;19;20091;-79
2024/03/07 00:29:37;;;;;;;34.17;17.45;;;;;;;3.64;100.00;102693.72;6088714;19;20021;-80
2024/03/07 00:31:43;;;;;;;45.90;18.52;;;;;;;3.62;100.00;102696.28;6090506;19;20010;-79
2024/03/07 00:33:48;;;;;;;35.72;17.10;;;;;;;3.56;100.00;102695.31;6091316;19;20046;-80
2024/03/07 00:36:13;;;;;;;39.33;18.83;;;;;;;3.49;100.00;102697.78;6086505;19;20106;-80
2024/03/07 00:38:18;;;;;;;45.25;18.08;;;;;;;3.43;100.00;102695.06;6089751;19;20002;-78
2024/03/07 00:40:23;;;;;;;42.42;17.98;;;;;;;3.38;100.00;102690.63;6090487;19;20025;-79
2024/03/07 00:42:27;;;;;;;38.22;16.83;;;;;;;3.35;100.00;102688.00;6088254;19;20031;-79
2024/03/07 00:44:37;;;;;;;35.92;18.98;;;;;;;3.39;100.00;102692.38;6089546;19;20018;-79
2024/03/07 00:46:42;;;;;;;36.92;17.50;;;;;;;3.43;100.00;102687.28;6091067;19;20010;-79
2024/03/07 00:48:48;;;;;;;39.00;17.88;;;;;;;3.37;100.00;102687.16;6089666;19;20023;-79
2024/03/07 00:50:53;;;;;;;45.60;18.30;;;;;;;3.37;100.00;102683.66;6089093;19;20190;-75
2024/03/07 00:52:59;;;;;;;34.35;17.80;;;;;;;3.30;100.00;102682.69;6086419;19;20421;-75
2024/03/07 00:55:05;;;;;;;40.88;17.00;;;;;;;3.30;100.00;102680.97;6090227;19;20381;-74
2024/03/07 00:57:11;;;;;;;49.53;18.55;;;;;;;3.31;100.00;102684.44;6088747;19;20020;-75
2024/03/07 00:59:16;;;;;;;45.22;20.90;;;;;;;3.24;100.00;102680.84;6090279;19;20015;-78
2024/03/07 01:01:23;;;;;;;41.47;16.73;;;;;;;3.21;100.00;102675.59;6087500;19;20009;-79
2024/03/07 01:03:31;;;;;;;33.08;16.80;;;;;;;3.17;100.00;102676.38;6092761;19;20375;-80
2024/03/07 01:05:36;;;;;;;32.72;17.23;;;;;;;3.14;100.00;102676.31;6090674;19;20262;-78
2024/03/07 01:07:39;;;;;;;32.65;17.45;;;;;;;3.14;100.00;102681.53;6090014;19;20038;-79
2024/03/07 01:09:47;;;;;;;39.33;20.88;;;;;;;3.19;100.00;102684.22;6087562;19;20002;-74
2024/03/07 01:11:50;;;;;;;36.40;17.65;;;;;;;3.17;100.00;102680.72;6088855;19;20121;-79
2024/03/07 01:13:55;;;;;;;44.15;18.73;;;;;;;3.22;100.00;102679.06;6088948;19;20483;-79
2024/03/07 01:16:00;;;;;;;45.95;20.00;;;;;;;3.25;100.00;102681.72;6086036;19;20035;-79
2024/03/07 01:18:08;;;;;;;47.17;20.08;;;;;;;3.26;100.00;102683.47;6089368;19;20010;-78
2024/03/07 01:20:14;;;;;;;48.28;21.90;;;;;;;3.21;100.00;102683.41;6083854;19;20011;-78
2024/03/07 01:22:19;;;;;;;34.92;19.88;;;;;;;3.19;100.00;102679.03;6088852;19;20010;-75
2024/03/07 01:24:25;;;;;;;35.65;20.85;;;;;;;3.16;100.00;102684.13;6086786;19;20003;-79
2024/03/07 01:26:28;;;;;;;42.05;18.75;;;;;;;3.17;100.00;102681.56;6089189;19;20020;-79
2024/03/07 01:28:33;;;;;;;44.72;19.63;;;;;;;3.19;100.00;102676.44;6086944;19;20391;-75
2024/03/07 01:30:38;;;;;;;46.30;19.52;;;;;;;3.19;100.00;102677.28;6088024;19;20010;-74
2024/03/07 01:32:43;;;;;;;42.63;18.05;;;;;;;3.17;100.00;102672.91;6087436;19;20051;-75
2024/03/07 01:34:51;;;;;;;42.47;21.63;;;;;;;3.14;100.00;102678.94;6086135;19;20031;-75
2024/03/07 01:36:56;;;;;;;42.25;19.02;;;;;;;3.09;100.00;102667.56;6087346;19;20038;-79
2024/03/07 01:39:01;;;;;;;49.58;21.95;;;;;;;3.11;100.00;102675.38;6085305;19;20027;-75
2024/03/07 01:41:06;;;;;;;40.80;18.40;;;;;;;3.12;100.00;102664.16;6086659;19;20032;-77
2024/03/07 01:43:12;;;;;;;43.47;19.83;;;;;;;3.06;100.00;102668.38;6087247;19;20386;-75
2024/03/07 01:45:18;;;;;;;45.88;20.55;;;;;;;3.03;100.00;102667.47;6087052;19;20006;-75
2024/03/07 01:47:23;;;;;;;42.03;17.52;;;;;;;3.02;100.00;102671.75;6086734;19;20002;-79
2024/03/07 01:49:28;;;;;;;41.88;18.90;;;;;;;2.99;100.00;102676.88;6087129;19;20007;-79
2024/03/07 01:51:36;;;;;;;37.55;19.60;;;;;;;2.96;100.00;102669.03;6086896;19;20497;-80
2024/03/07 01:53:41;;;;;;;48.80;17.60;;;;;;;2.90;100.00;102668.91;6084632;19;20013;-79
2024/03/07 01:55:44;;;;;;;41.70;19.67;;;;;;;2.92;100.00;102672.41;6086617;19;20066;-75
2024/03/07 01:57:49;;;;;;;38.40;20.63;;;;;;;2.90;100.00;102668.91;6087333;19;20114;-75
2024/03/07 01:59:54;;;;;;;43.92;20.23;;;;;;;2.91;100.00;102668.06;6083944;19;20346;-75
2024/03/07 02:02:02;;;;;;;45.20;20.52;;;;;;;2.91;100.00;102662.88;6083448;19;20078;-75
2024/03/07 02:04:08;;;;;;;54.40;20.42;;;;;;;2.97;100.00;102656.91;6086906;19;20006;-75
2024/03/07 02:06:13;;;;;;;49.08;20.58;;;;;;;2.96;100.00;102660.38;6081609;19;20497;-79
2024/03/07 02:08:21;;;;;;;41.45;19.60;;;;;;;2.96;100.00;102656.06;6086914;19;20013;-79
2024/03/07 02:10:24;;;;;;;41.80;19.70;;;;;;;2.98;100.00;102659.56;6084469;19;20042;-79
2024/03/07 02:12:29;;;;;;;49.55;20.17;;;;;;;2.93;100.00;102656.00;6086967;19;20028;-80
2024/03/07 02:14:34;;;;;;;46.80;18.33;;;;;;;2.96;100.00;102655.19;6090025;19;20003;-78
2024/03/07 02:16:39;;;;;;;48.00;19.63;;;;;;;3.02;100.00;102650.97;6092636;19;20480;-79
2024/03/07 02:18:44;;;;;;;51.00;22.13;;;;;;;3.02;100.00;102658.75;6088311;19;20007;-74
2024/03/07 02:20:52;;;;;;;46.45;20.33;;;;;;;3.04;100.00;102653.59;6089261;19;20019;-81
2024/03/07 02:22:55;;;;;;;42.00;19.50;;;;;;;3.07;100.00;102649.34;6092342;19;20015;-79
2024/03/07 02:25:01;;;;;;;46.80;20.63;;;;;;;3.09;100.00;102641.59;6089232;19;20010;-75
2024/03/07 02:27:09;;;;;;;43.35;19.52;;;;;;;3.08;100.00;102643.31;6090005;19;20021;-75
2024/03/07 02:29:15;;;;;;;50.13;22.00;;;;;;;3.02;100.00;102640.56;6088398;19;20007;-75
2024/03/07 02:31:28;;;;;;;49.95;22.00;;;;;;;2.99;100.00;102639.66;6087426;19;20098;-80
2024/03/07 02:33:33;;;;;;;46.90;21.02;;;;;;;3.02;100.00;102637.97;6089662;19;20014;-80
2024/03/07 02:35:38;;;;;;;44.58;19.55;;;;;;;2.96;100.00;102632.69;6087972;19;20018;-80
2024/03/07 02:37:46;;;;;;;42.08;20.25;;;;;;;2.98;100.00;102627.53;6086933;19;20019;-80
2024/03/07 02:39:51;;;;;;;42.47;21.27;;;;;;;2.96;100.00;102630.09;6087004;19;20023;-80
2024/03/07 02:41:57;;;;;;;42.13;19.80;;;;;;;3.01;100.00;102627.59;6084749;19;20502;-75
2024/03/07 02:44:06;;;;;;;46.53;19.67;;;;;;;2.98;100.00;102630.13;6084204;19;20392;-75
2024/03/07 02:46:11;;;;;;;44.53;19.02;;;;;;;2.99;100.00;102624.94;6085095;19;20013;-75
2024/03/07 02:48:18;;;;;;;44.67;19.60;;;;;;;2.94;100.00;102626.56;6083289;19;20049;-75
2024/03/07 02:50:24;;;;;;;43.65;20.58;;;;;;;2.94;100.00;102623.09;6083838;19;20125;-75
2024/03/07 02:52:29;;;;;;;42.17;20.15;;;;;;;2.98;100.00;102623.22;6083739;19;20625;-75
2024/03/07 02:54:37;;;;;;;41.88;20.55;;;;;;;3.01;100.00;102628.44;6083260;19;20007;-75
2024/03/07 02:56:42;;;;;;;42.65;19.23;;;;;;;2.95;100.00;102617.06;6082788;19;20019;-76
2024/03/07 02:58:47;;;;;;;42.47;21.15;;;;;;;3.00;100.00;102624.13;6083546;19;20538;-80
2024/03/07 03:00:59;;;;;;;43.03;19.63;;;;;;;2.99;100.00;102619.75;6084866;19;20009;-80
2024/03/07 03:03:04;;;;;;;45.85;18.95;;;;;;;3.00;100.00;102621.53;6086420;19;20015;-80
2024/03/07 03:05:12;;;;;;;52.70;22.98;;;;;;;3.01;100.00;102615.47;6085561;19;20471;-79
2024/03/07 03:07:17;;;;;;;44.90;19.85;;;;;;;3.00;100.00;102615.44;6084220;19;20014;-75
2024/03/07 03:09:23;;;;;;;40.72;19.77;;;;;;;3.03;100.00;102611.19;6082105;19;20078;-76
2024/03/07 03:11:31;;;;;;;41.05;21.35;;;;;;;3.03;100.00;102618.09;6085217;19;20010;-80
2024/03/07 03:13:33;;;;;;;50.58;23.55;;;;;;;2.98;100.00;102610.22;6084291;19;20074;-75
2024/03/07 03:15:39;;;;;;;42.13;21.92;;;;;;;3.00;100.00;102605.94;6083692;19;20011;-75
2024/03/07 03:17:41;;;;;;;45.03;21.38;;;;;;;3.00;100.00;102608.53;6083711;19;20205;-75
2024/03/07 03:19:49;;;;;;;55.45;21.88;;;;;;;2.93;100.00;102610.97;6083506;19;20006;-75
2024/03/07 03:21:55;;;;;;;44.05;20.02;;;;;;;2.97;100.00;102615.38;6083389;19;20035;-76
2024/03/07 03:24:02;;;;;;;46.05;22.40;;;;;;;2.93;100.00;102609.25;6089045;19;20106;-76
2024/03/07 03:26:08;;;;;;;50.53;19.55;;;;;;;2.88;100.00;102613.47;6088460;19;20031;-76
2024/03/07 03:28:13;;;;;;;41.55;19.67;;;;;;;2.89;100.00;102612.63;6089945;19;20015;-75
2024/03/07 03:30:18;;;;;;;44.95;21.08;;;;;;;2.89;100.00;102611.75;6084860;19;20363;-75
2024/03/07 03:32:23;;;;;;;47.50;21.92;;;;;;;2.91;100.00;102608.34;6086603;19;20038;-75
2024/03/07 03:34:29;;;;;;;51.35;21.95;;;;;;;2.91;100.00;102605.75;6085813;19;20509;-75
2024/03/07 03:36:31;;;;;;;44.88;20.70;;;;;;;2.90;100.00;102606.59;6089651;19;20014;-75
2024/03/07 03:38:36;;;;;;;56.92;22.65;;;;;;;2.91;100.00;102608.34;6087999;19;20470;-75
2024/03/07 03:40:41;;;;;;;55.58;19.98;;;;;;;2.99;100.00;102603.31;6086765;19;20010;-75
2024/03/07 03:42:47;;;;;;;48.28;22.00;;;;;;;2.94;100.00;102599.72;6089232;19;20006;-75
2024/03/07 03:44:58;;;;;;;52.90;23.13;;;;;;;2.91;100.00;102595.34;6085745;19;20423;-75
2024/03/07 03:47:03;;;;;;;50.92;23.23;;;;;;;2.94;100.00;102603.19;6086950;19;20526;-76
2024/03/07 03:49:09;;;;;;;49.75;23.52;;;;;;;2.96;100.00;102603.25;6086465;19;20046;-80
2024/03/07 03:51:15;;;;;;;51.30;22.08;;;;;;;2.90;100.00;102593.63;6087111;19;20006;-80
2024/03/07 03:53:20;;;;;;;51.05;22.38;;;;;;;2.96;100.00;102593.72;6085726;19;20043;-79
2024/03/07 03:55:23;;;;;;;45.35;21.73;;;;;;;2.91;100.00;102595.34;6087574;19;20035;-75
2024/03/07 03:57:30;;;;;;;;;;;;;;;2.88;100.00;102590.13;6087767;19;20256;-75
2024/03/07 03:59:35;;;;;;;46.35;18.17;;;;;;;2.86;100.00;102592.66;6085761;19;20278;-80
2024/03/07 04:01:45;;;;;;;51.60;23.30;;;;;;;2.89;100.00;102596.16;6088139;19;20530;-79
2024/03/07 04:03:50;;;;;;;42.80;20.77;;;;;;;2.89;100.00;102590.97;6089039;19;20438;-80
2024/03/07 04:05:56;;;;;;;49.90;23.52;;;;;;;2.91;100.00;102594.50;6089485;19;20013;-80
2024/03/07 04:08:01;;;;;;;45.38;21.27;;;;;;;2.95;100.00;102583.28;6088819;19;20029;-75
2024/03/07 04:10:09;;;;;;;52.35;23.27;;;;;;;2.98;100.00;102589.44;6088521;19;20045;-75
2024/03/07 04:12:11;;;;;;;46.03;23.05;;;;;;;2.99;100.00;102579.94;6087439;19;20003;-80
2024/03/07 04:14:16;;;;;;;54.45;22.63;;;;;;;2.94;100.00;102584.16;6087505;19;20007;-80
2024/03/07 04:16:21;;;;;;;54.80;26.35;;;;;;;3.03;100.00;102590.41;6088060;19;20009;-76
2024/03/07 04:18:30;;;;;;;54.33;24.52;;;;;;;3.02;100.00;102586.03;6086457;19;20808;-75
2024/03/07 04:20:36;;;;;;;51.97;23.35;;;;;;;3.01;100.00;102581.72;6086036;19;20019;-75
2024/03/07 04:22:44;;;;;;;48.38;21.48;;;;;;;3.07;100.00;102587.00;6086540;19;20478;-75
2024/03/07 04:24:53;;;;;;;47.40;22.48;;;;;;;3.03;100.00;102593.00;6089615;19;20022;-80
2024/03/07 04:27:02;;;;;;;56.10;23.50;;;;;;;2.98;100.00;102586.84;6088485;19;20020;-75
2024/03/07 04:29:08;;;;;;;45.13;20.63;;;;;;;3.03;100.00;102585.22;6087501;19;20396;-75
2024/03/07 04:31:16;;;;;;;42.92;21.00;;;;;;;3.04;100.00;102581.75;6088632;19;20006;-80
2024/03/07 04:33:21;;;;;;;51.20;23.65;;;;;;;3.07;100.00;102583.53;6086821;19;20447;-75
2024/03/07 04:35:29;;;;;;;48.40;22.13;;;;;;;3.05;100.00;102582.63;6087728;19;20006;-79
2024/03/07 04:37:36;;;;;;;50.25;22.98;;;;;;;3.08;100.00;102578.38;6086565;19;20073;-75
2024/03/07 04:39:41;;;;;;;45.95;21.00;;;;;;;3.08;100.00;102570.59;6086304;19;20003;-75
2024/03/07 04:41:47;;;;;;;54.55;22.80;;;;;;;3.07;100.00;102574.03;6085770;19;20356;-75
2024/03/07 04:43:52;;;;;;;40.45;21.50;;;;;;;2.99;100.00;102565.22;6088175;19;20017;-76
2024/03/07 04:45:59;;;;;;;48.40;22.83;;;;;;;2.92;100.00;102565.06;6087868;19;20390;-76
2024/03/07 04:48:04;;;;;;;53.15;20.25;;;;;;;2.91;100.00;102566.78;6086215;19;20017;-76
2024/03/07 04:50:12;;;;;;;46.58;20.67;;;;;;;2.86;100.00;102568.44;6084892;19;20007;-75
2024/03/07 04:52:20;;;;;;;43.95;20.25;;;;;;;2.76;100.00;102569.97;6085910;19;20017;-75
2024/03/07 04:54:30;;;;;;;46.05;21.25;;;;;;;2.76;100.00;102569.09;6086855;19;20489;-74
2024/03/07 04:56:37;;;;;;;47.67;21.63;;;;;;;2.76;100.00;102575.16;5997234;19;2004824;-74
2024/03/07 04:58:40;;;;;;;44.97;21.33;;;;;;;2.72;100.00;102577.69;6089239;19;20019;-79
2024/03/07 05:00:45;;;;;;;43.47;20.52;;;;;;;2.71;100.00;102573.31;6088659;19;20002;-79
2024/03/07 05:02:51;;;;;;;47.45;21.67;;;;;;;2.74;100.00;102575.97;6094688;19;20010;-79
2024/03/07 05:04:56;;;;;;;43.53;20.88;;;;;;;2.78;100.00;102573.47;6097702;19;20562;-79
2024/03/07 05:07:01;;;;;;;44.92;21.10;;;;;;;2.81;100.00;102578.72;6095765;19;20565;-80
2024/03/07 05:09:22;;;;;;;50.10;21.73;;;;;;;2.83;100.00;102581.34;6098264;19;20102;-79
2024/03/07 05:11:25;;;;;;;44.33;22.50;;;;;;;2.84;100.00;102577.91;6098795;19;20564;-80
2024/03/07 05:13:31;;;;;;;52.88;23.00;;;;;;;2.89;100.00;102570.22;6097025;19;20019;-81
2024/03/07 05:15:36;;;;;;;44.90;22.52;;;;;;;2.92;100.00;102584.13;6093374;19;20014;-79
2024/03/07 05:17:44;;;;;;;45.33;21.55;;;;;;;2.94;100.00;102578.97;6096100;19;20290;-79
2024/03/07 05:19:50;;;;;;;52.28;21.17;;;;;;;2.96;100.00;102578.16;6093845;19;20038;-79
2024/03/07 05:21:55;;;;;;;52.88;22.45;;;;;;;2.99;100.00;102570.41;6094376;19;20013;-80
2024/03/07 05:24:00;;;;;;;42.75;21.67;;;;;;;3.02;100.00;102577.38;6093150;19;20021;-79
2024/03/07 05:26:08;;;;;;;53.72;21.80;;;;;;;3.01;100.00;102568.72;6089915;19;20014;-79
2024/03/07 05:28:13;;;;;;;55.03;22.48;;;;;;;3.00;100.00;102574.78;6096010;19;20006;-79
2024/03/07 05:30:18;;;;;;;48.70;22.70;;;;;;;3.00;100.00;102577.38;6018603;19;20034;-80
2024/03/07 05:32:25;;;;;;;44.17;24.00;;;;;;;3.00;100.00;102586.84;6087157;19;20003;-81
2024/03/07 05:34:33;;;;;;;44.58;21.30;;;;;;;3.02;100.00;102580.84;6089541;19;20014;-80
2024/03/07 05:36:43;;;;;;;52.97;23.30;;;;;;;3.06;100.00;102577.47;6087650;19;20442;-75
2024/03/07 05:38:51;;;;;;;47.58;21.05;;;;;;;3.05;100.00;102578.34;6085896;19;20023;-75
2024/03/07 05:40:56;;;;;;;48.80;23.27;;;;;;;3.00;100.00;102572.19;6088304;19;20010;-79
2024/03/07 05:43:08;;;;;;;46.55;21.60;;;;;;;3.04;100.00;102581.75;6084705;19;20482;-79
2024/03/07 05:45:14;;;;;;;47.65;22.50;;;;;;;2.99;100.00;102569.53;6082763;19;20038;-79
2024/03/07 05:47:20;;;;;;;41.67;21.15;;;;;;;2.98;100.00;102573.88;6087038;19;20003;-79
2024/03/07 05:49:25;;;;;;;48.15;20.75;;;;;;;2.99;100.00;102570.41;6088349;19;20018;-79
2024/03/07 05:51:30;;;;;;;40.47;22.35;;;;;;;2.99;100.00;102570.41;6085670;19;20089;-74
2024/03/07 05:53:35;;;;;;;49.67;22.17;;;;;;;2.96;100.00;102572.94;6084893;19;20011;-75
2024/03/07 05:55:40;;;;;;;54.83;25.08;;;;;;;2.97;100.00;102566.03;6089914;19;20007;-75
2024/03/07 05:57:45;;;;;;;50.63;22.38;;;;;;;2.97;100.00;102568.63;6089634;19;20010;-75
2024/03/07 05:59:53;;;;;;;48.95;23.48;;;;;;;2.90;100.00;102566.75;6086154;19;20002;-75
2024/03/07 06:01:57;;;;;;;44.00;23.65;;;;;;;2.85;100.00;102564.09;6086624;19;20007;-75
2024/03/07 06:04:02;;;;;;;55.63;22.60;;;;;;;2.84;100.00;102564.91;6089370;19;20081;-74
2024/03/07 06:06:06;;;;;;;48.92;22.25;;;;;;;2.88;100.00;102560.69;6087457;19;20478;-75
2024/03/07 06:08:13;;;;;;;54.17;25.90;;;;;;;2.87;100.00;102567.59;6089292;19;20034;-75
2024/03/07 06:10:18;;;;;;;58.05;23.98;;;;;;;2.83;100.00;102566.66;6087627;19;20025;-75
2024/03/07 06:12:24;;;;;;;57.03;24.95;;;;;;;2.85;100.00;102566.69;6088206;19;19999;-75
2024/03/07 06:14:32;;;;;;;54.70;24.13;;;;;;;2.82;100.00;102564.03;6085880;19;20014;-80
2024/03/07 06:16:42;;;;;;;52.83;23.02;;;;;;;2.82;100.00;102561.44;6084919;19;20082;-81
2024/03/07 06:18:47;;;;;;;50.47;22.80;;;;;;;2.84;100.00;102564.91;6086673;19;20007;-80
2024/03/07 06:20:54;;;;;;;52.42;23.52;;;;;;;2.79;100.00;102564.84;6084726;19;20039;-80
2024/03/07 06:23:02;;;;;;;50.20;22.63;;;;;;;2.78;100.00;102563.09;6089784;19;20010;-79
2024/03/07 06:25:08;;;;;;;56.47;23.58;;;;;;;2.77;100.00;102557.88;6087911;19;20006;-80
2024/03/07 06:27:16;;;;;;;52.80;23.45;;;;;;;2.76;100.00;102556.09;6086882;19;20352;-79
2024/03/07 06:29:21;;;;;;;57.85;23.73;;;;;;;2.78;100.00;102567.41;6086938;19;20475;-80
2024/03/07 06:31:26;;;;;;;46.40;22.70;;;;;;;2.78;100.00;102573.47;6088049;19;20006;-81
2024/03/07 06:33:35;;;;;;;46.22;21.65;;;;;;;2.81;100.00;102565.72;6084808;19;20015;-75
2024/03/07 06:35:41;;;;;;;42.67;20.38;;;;;;;2.85;100.00;102561.50;6085542;19;20002;-75
2024/03/07 06:37:46;;;;;;;54.15;22.75;;;;;;;2.81;100.00;102564.88;6082125;19;20017;-75
2024/03/07 06:39:53;;;;;;;51.63;21.90;;;;;;;2.79;100.00;102558.75;6084212;19;20013;-75
2024/03/07 06:41:58;;;;;;;49.80;23.25;;;;;;;2.81;100.00;102555.34;6084463;19;20035;-74
2024/03/07 06:44:03;;;;;;;52.65;23.30;;;;;;;2.82;100.00;102553.66;6085496;19;20031;-75
2024/03/07 06:46:10;;;;;;;48.08;22.02;;;;;;;2.84;100.00;102552.84;6087515;19;20035;-74
2024/03/07 06:48:17;;;;;;;41.10;20.73;;;;;;;2.91;100.00;102553.81;6086986;19;20065;-76
2024/03/07 06:50:25;;;;;;;61.78;23.10;;;;;;;2.86;100.00;102550.25;6087102;19;20038;-76
2024/03/07 06:52:41;;;;;;;44.47;25.63;;;;;;;2.81;100.00;102557.06;5980204;19;2004862;-75
2024/03/07 06:54:46;;;;;;;47.17;20.98;;;;;;;2.86;100.00;102560.63;6085183;19;20454;-79
2024/03/07 06:56:51;;;;;;;53.80;22.60;;;;;;;2.89;100.00;102550.31;6088156;19;20083;-79
2024/03/07 06:58:56;;;;;;;53.65;22.42;;;;;;;2.95;100.00;102560.81;6091245;19;20046;-79
2024/03/07 07:01:01;;;;;;;50.03;21.30;;;;;;;2.97;100.00;102553.91;6093056;19;20510;-80
2024/03/07 07:03:07;;;;;;;48.15;21.42;;;;;;;3.01;100.00;102553.13;6091157;19;20032;-79
2024/03/07 07:05:15;;;;;;;46.45;21.92;;;;;;;3.05;100.00;102552.38;6096435;19;20051;-78
2024/03/07 07:07:20;;;;;;;43.47;20.92;;;;;;;3.01;100.00;102555.75;6092736;19;20021;-80
2024/03/07 07:09:25;;;;;;;45.10;21.75;;;;;;;3.10;100.00;102548.97;6090663;19;20007;-78
2024/03/07 07:11:30;;;;;;;44.38;21.45;;;;;;;3.12;100.00;102550.72;6091028;19;20047;-81
2024/03/07 07:13:39;;;;;;;54.90;22.73;;;;;;;3.21;100.00;102547.41;6092105;19;20086;-76
2024/03/07 07:15:44;;;;;;;49.20;24.13;;;;;;;3.18;100.00;102552.56;6090707;19;20034;-75
2024/03/07 07:17:48;;;;;;;53.20;25.15;;;;;;;3.19;100.00;102544.81;6090357;19;20011;-74
2024/03/07 07:19:55;;;;;;;52.15;22.42;;;;;;;3.24;100.00;102544.91;6086349;19;20073;-74
2024/03/07 07:22:00;;;;;;;56.08;24.67;;;;;;;3.29;100.00;102559.72;6090868;19;20011;-79
2024/03/07 07:24:08;;;;;;;49.85;22.98;;;;;;;3.37;100.00;102552.03;6094432;19;20097;-78
2024/03/07 07:26:13;;;;;;;49.70;20.48;;;;;;;3.42;100.00;102549.50;6096685;19;20014;-79
2024/03/07 07:28:18;;;;;;;54.35;24.88;;;;;;;3.40;100.00;102553.81;6093463;19;20002;-79
2024/03/07 07:30:27;;;;;;;52.17;25.38;;;;;;;3.49;100.00;102549.63;6089381;19;20027;-78
2024/03/07 07:32:32;;;;;;;48.22;19.70;;;;;;;3.52;100.00;102549.66;6091464;19;20322;-78
2024/03/07 07:34:37;;;;;;;44.78;22.83;;;;;;;3.59;100.00;102550.66;6086476;19;20034;-78
2024/03/07 07:36:42;;;;;;;49.65;24.75;;;;;;;3.66;100.00;102557.72;6094185;19;20015;-79
2024/03/07 07:38:47;;;;;;;53.72;24.10;;;;;;;3.68;100.00;102555.13;6094229;19;20375;-80
2024/03/07 07:40:55;;;;;;;56.08;24.02;;;;;;;3.75;100.00;102554.38;6093705;19;20011;-80
2024/03/07 07:43:01;;;;;;;46.72;23.85;;;;;;;3.81;100.00;102551.84;6095676;19;20025;-81
2024/03/07 07:45:06;;;;;;;49.67;23.58;;;;;;;3.87;100.00;102551.97;6095539;19;20006;-79
2024/03/07 07:47:12;;;;;;;44.50;22.08;;;;;;;3.90;100.00;102546.81;6096994;19;19998;-79
2024/03/07 07:49:17;;;;;;;51.72;22.40;;;;;;;3.92;100.00;102545.09;6096091;19;20491;-79
2024/03/07 07:51:25;;;;;;;53.97;25.15;;;;;;;3.94;100.00;102540.78;6097811;19;20018;-79
2024/03/07 07:53:30;;;;;;;52.78;24.73;;;;;;;4.00;100.00;102544.31;6096941;19;20010;-80
2024/03/07 07:55:38;;;;;;;52.50;24.85;;;;;;;4.03;100.00;102546.97;6094778;19;20007;-80
2024/03/07 07:57:52;;;;;;;56.92;24.92;;;;;;;4.13;100.00;102544.53;6093698;19;20029;-79
2024/03/07 07:59:57;;;;;;;36.95;21.05;;;;;;;4.15;100.00;102539.34;6092099;19;20539;-79
2024/03/07 08:02:06;;;;;;;39.33;22.58;;;;;;;4.26;100.00;102542.94;6091132;19;20010;-81
2024/03/07 08:04:12;;;;;;;50.05;21.73;;;;;;;4.32;100.00;102540.44;6091651;19;20002;-79
2024/03/07 08:06:17;;;;;;;39.17;20.27;;;;;;;4.43;100.00;102537.09;6092047;19;20006;-79
2024/03/07 08:08:23;;;;;;;52.30;23.30;;;;;;;4.48;100.00;102538.91;6086813;19;20299;-77
2024/03/07 08:10:28;;;;;;;45.75;22.10;;;;;;;4.61;100.00;102537.31;6091553;19;20454;-80
2024/03/07 08:12:36;;;;;;;45.65;23.05;;;;;;;4.73;100.00;102539.16;6091895;19;20006;-80
2024/03/07 08:14:44;;;;;;;55.10;24.35;;;;;;;4.85;100.00;102541.91;6093657;19;20070;-77
2024/03/07 08:16:51;;;;;;;46.85;22.55;;;;;;;4.96;100.00;102535.06;6092253;19;22300;-79
2024/03/07 08:18:56;;;;;;;39.90;21.10;;;;;;;5.03;100.00;102536.03;6092503;19;20373;-77
2024/03/07 08:21:01;;;;;;;49.70;22.85;;;;;;;5.13;100.00;102530.00;6095629;19;20031;-79
2024/03/07 08:23:07;;;;;;;48.60;21.30;;;;;;;5.25;100.00;102527.53;6094977;19;20042;-76
2024/03/07 08:25:10;;;;;;;43.95;22.63;;;;;;;5.49;100.00;102531.19;6090333;19;20467;-76
2024/03/07 08:27:15;;;;;;;41.85;21.92;;;;;;;5.55;100.00;102535.59;6086080;19;20035;-77
2024/03/07 08:29:20;;;;;;;44.42;20.88;;;;;;;5.68;100.00;102535.69;6090277;19;20439;-75
2024/03/07 08:31:28;;;;;;;38.22;20.80;;;;;;;5.66;100.00;102529.59;6089277;19;20668;-78
2024/03/07 08:33:34;;;;;;;41.83;19.73;;;;;;;5.84;100.00;102527.97;6088638;19;20003;-80
2024/03/07 08:35:39;;;;;;;42.97;20.17;;;;;;;6.02;100.00;102522.88;6089469;19;20362;-78
2024/03/07 08:37:46;;;;;;;39.72;16.40;;;;;;;5.94;100.00;102530.66;6087207;19;20006;-76
2024/03/07 08:39:52;;;;;;;44.10;20.90;;;;;;;6.14;100.00;102522.09;6086232;19;20363;-74
2024/03/07 08:42:03;;;;;;;36.42;17.73;;;;;;;6.09;100.00;102516.84;6086070;19;20469;-76
2024/03/07 08:44:13;;;;;;;35.72;17.95;;;;;;;6.13;100.00;102520.31;6085909;19;20013;-79
2024/03/07 08:46:19;;;;;;;44.33;20.40;;;;;;;6.29;100.00;102516.03;6090548;19;20014;-78
2024/03/07 08:48:28;;;;;;;40.10;19.83;;;;;;;6.40;100.00;102518.69;6088191;19;20007;-79
2024/03/07 08:50:37;;;;;;;39.58;20.27;;;;;;;6.58;100.00;102514.44;6086848;19;20631;-79
2024/03/07 08:52:44;;;;;;;41.35;16.70;;;;;;;6.52;100.00;102514.41;6082046;19;20050;-79
2024/03/07 08:54:49;;;;;;;33.13;16.20;;;;;;;6.56;100.00;102510.06;6086221;19;20014;-73
2024/03/07 08:56:55;;;;;;;37.15;17.33;;;;;;;6.74;100.00;102515.34;6086235;19;20085;-74
2024/03/07 08:59:00;;;;;;;37.45;18.02;;;;;;;6.79;100.00;102508.38;6086415;19;20032;-76
2024/03/07 09:01:05;;;;;;;27.88;15.50;;;;;;;6.75;100.00;102511.00;6085390;19;20031;-74
2024/03/07 09:03:12;;;;;;;34.95;16.52;;;;;;;6.87;100.00;102505.75;6084598;19;20007;-74
2024/03/07 09:05:18;;;;;;;30.73;16.88;;;;;;;7.02;100.00;102499.69;6084233;19;20553;-75
2024/03/07 09:07:24;;;;;;;30.15;16.10;;;;;;;7.12;100.00;102496.22;6085904;19;20019;-74
2024/03/07 09:09:29;;;;;;;31.60;15.98;;;;;;;7.17;100.00;102497.09;6084171;19;20722;-74
2024/03/07 09:11:36;;;;;;;35.90;16.05;;;;;;;7.36;100.00;102495.34;6085738;19;20013;-74
2024/03/07 09:13:42;;;;;;;36.83;16.38;;;;;;;7.34;100.00;102502.31;6084383;19;20017;-74
2024/03/07 09:15:46;;;;;;;34.42;16.55;;;;;;;7.37;100.00;102490.97;6081512;19;20034;-79
2024/03/07 09:17:53;;;;;;;31.38;15.05;;;;;;;7.46;100.00;102497.09;6082455;19;20019;-79
2024/03/07 09:19:56;;;;;;;30.75;15.70;;;;;;;7.60;100.00;102494.44;6086634;19;20010;-79
2024/03/07 09:22:07;;;;;;;29.48;14.90;;;;;;;7.50;100.00;102497.06;6085717;19;20015;-79
2024/03/07 09:24:15;;;;;;;28.90;16.20;;;;;;;7.56;100.00;102495.34;6088847;19;20006;-79
2024/03/07 09:26:20;;;;;;;28.20;14.23;;;;;;;7.48;100.00;102494.47;6086485;19;20113;-80
2024/03/07 09:28:28;;;;;;;27.00;13.35;;;;;;;7.65;100.00;102494.44;6087875;19;20098;-79
2024/03/07 09:30:33;;;;;;;28.40;14.63;;;;;;;7.44;100.00;102493.59;6086445;19;20353;-76
2024/03/07 09:32:38;;;;;;;29.88;14.50;;;;;;;7.52;100.00;102496.19;6084223;19;20486;-75